Time;durP1;ratioP1;P1;durP2;ratioP2;P2;SDS_P1;SDS_P2;PMS_P1;PMS_P2;Temp;Humidity;BMP_temperature;BMP_pressure;BME280_temperature;BME280_humidity;BME280_pressure;Samples;Min_cycle;Max_cycle;Signal;HPM_P1;HPM_P2
2024/02/06 00:02:24;;;;;;;;;;;;;;;15.46;32.67;99706.56;4993504;28;19914;-84
2024/02/06 00:04:49;;;;;;;;;;;;;;;15.48;32.72;99704.53;4976055;28;19964;-84
2024/02/06 00:07:15;;;;;;;;;;;;;;;15.48;32.51;99707.19;4993362;28;19918;-84
2024/02/06 00:09:40;;;;;;;;;;;;;;;15.49;32.13;99700.84;4993233;28;20386;-84
2024/02/06 00:12:06;;;;;;;;;;;;;;;15.47;32.21;99706.38;4992930;28;20403;-84
2024/02/06 00:14:31;;;;;;;;;;;;;;;15.47;31.57;99718.84;4975665;28;20449;-84
2024/02/06 00:16:56;;;;;;;;;;;;;;;15.46;32.09;99727.84;4975628;28;19918;-84
2024/02/06 00:19:21;;;;;;;;;;;;;;;15.49;32.64;99730.94;4993141;28;19941;-84
2024/02/06 00:21:47;;;;;;;;;;;;;;;15.49;32.51;99728.28;4975563;28;20442;-84
2024/02/06 00:24:12;;;;;;;;;;;;;;;15.50;32.22;99735.22;4975395;28;19913;-84
2024/02/06 00:26:37;;;;;;;;;;;;;;;15.48;31.67;99718.66;4975355;28;19918;-84
2024/02/06 00:29:03;;;;;;;;;;;;;;;15.49;31.88;99727.44;4992597;28;19972;-84
2024/02/06 00:31:28;;;;;;;;;;;;;;;15.47;32.60;99725.00;4992852;28;19964;-84
2024/02/06 00:33:53;;;;;;;;;;;;;;;15.44;32.09;99741.38;4993023;28;20310;-84
2024/02/06 00:36:18;;;;;;;;;;;;;;;15.42;32.29;99727.44;4975279;28;20303;-84
2024/02/06 00:38:44;;;;;;;;;;;;;;;15.41;32.70;99714.34;4992826;28;19913;-84
2024/02/06 00:41:11;;;;;;;;;;;;;;;15.39;31.80;99729.69;4975538;28;20369;-84
2024/02/06 00:43:36;;;;;;;;;;;;;;;15.39;32.54;99717.22;4975251;28;19914;-84
2024/02/06 00:46:02;;;;;;;;;;;;;;;15.41;32.24;99717.00;4992593;28;19918;-84
2024/02/06 00:48:27;;;;;;;;;;;;;;;15.39;31.64;99724.38;4992588;28;19917;-84
2024/02/06 00:50:52;;;;;;;;;;;;;;;15.41;32.47;99735.63;4992654;28;20331;-84
2024/02/06 00:53:17;;;;;;;;;;;;;;;15.41;32.25;99719.66;4992846;28;19913;-84
2024/02/06 00:55:43;;;;;;;;;;;;;;;15.41;31.71;99711.69;4992469;28;19921;-84
2024/02/06 00:58:08;;;;;;;;;;;;;;;15.40;32.05;99718.84;4974024;28;19914;-84
2024/02/06 01:00:35;;;;;;;;;;;;;;;15.37;31.31;99711.28;4974831;28;20369;-84
2024/02/06 01:03:00;;;;;;;;;;;;;;;15.41;32.76;99725.81;4992223;28;19914;-84
2024/02/06 01:05:27;;;;;;;;;;;;;;;15.37;31.57;99721.94;4992143;28;20342;-84
2024/02/06 01:07:52;;;;;;;;;;;;;;;15.37;31.99;99726.44;4992358;28;20413;-83
2024/02/06 01:10:18;;;;;;;;;;;;;;;15.36;32.66;99730.94;4992340;28;19972;-84
2024/02/06 01:12:43;;;;;;;;;;;;;;;15.36;31.41;99722.94;4992390;28;19914;-84
2024/02/06 01:15:08;;;;;;;;;;;;;;;15.32;31.21;99718.25;4992436;28;20026;-84
2024/02/06 01:17:33;;;;;;;;;;;;;;;15.34;32.04;99719.66;4992399;28;20323;-84
2024/02/06 01:19:59;;;;;;;;;;;;;;;15.33;31.42;99722.53;4975252;28;20387;-84
2024/02/06 01:22:24;;;;;;;;;;;;;;;15.30;31.98;99726.44;4992389;28;19913;-84
2024/02/06 01:24:49;;;;;;;;;;;;;;;15.30;32.11;99723.75;4974869;28;19913;-84
2024/02/06 01:27:15;;;;;;;;;;;;;;;15.32;32.43;99726.22;4992326;28;20002;-84
2024/02/06 01:29:40;;;;;;;;;;;;;;;15.27;31.76;99721.50;4974872;28;19961;-84
2024/02/06 01:32:06;;;;;;;;;;;;;;;15.29;32.27;99723.97;4974583;28;19913;-84
2024/02/06 01:34:31;;;;;;;;;;;;;;;15.27;32.07;99711.69;4992004;28;19913;-84
2024/02/06 01:36:56;;;;;;;;;;;;;;;15.27;32.33;99716.19;4992134;28;19913;-84
2024/02/06 01:39:22;;;;;;;;;;;;;;;15.25;31.22;99696.97;4991993;28;20361;-84
2024/02/06 01:41:47;;;;;;;;;;;;;;;15.25;30.95;99694.28;4974741;28;19914;-84
2024/02/06 01:44:12;;;;;;;;;;;;;;;15.25;32.03;99697.78;4974586;28;19913;-84
2024/02/06 01:46:39;;;;;;;;;;;;;;;15.22;31.76;99708.00;4992181;28;20296;-84
2024/02/06 01:49:05;;;;;;;;;;;;;;;15.23;31.64;99696.34;4974428;28;19962;-84
2024/02/06 01:51:33;;;;;;;;;;;;;;;15.22;30.73;99716.00;4992111;28;20346;-84
2024/02/06 01:53:59;;;;;;;;;;;;;;;15.23;30.94;99707.81;4991908;28;19936;-84
2024/02/06 01:56:24;;;;;;;;;;;;;;;15.29;31.63;99708.81;4991983;28;20383;-84
2024/02/06 01:58:49;;;;;;;;;;;;;;;15.30;30.51;99704.31;4991985;28;19972;-84
2024/02/06 02:01:16;;;;;;;;;;;;;;;15.33;30.02;99715.38;4974358;28;20298;-84
2024/02/06 02:03:43;;;;;;;;;;;;;;;15.39;30.68;99716.41;4974403;28;19913;-84
2024/02/06 02:06:08;;;;;;;;;;;;;;;15.40;30.32;99712.72;4974428;28;19914;-84
2024/02/06 02:08:34;;;;;;;;;;;;;;;15.43;29.91;99717.63;4991858;28;19984;-84
2024/02/06 02:11:00;;;;;;;;;;;;;;;15.46;30.60;99720.69;4995470;28;19914;-84
2024/02/06 02:13:25;;;;;;;;;;;;;;;15.48;31.23;99710.66;4995275;28;19920;-84
2024/02/06 02:15:51;;;;;;;;;;;;;;;15.50;29.86;99710.47;4977806;28;19921;-84
2024/02/06 02:18:16;;;;;;;;;;;;;;;15.51;30.16;99712.09;4995662;28;19941;-84
2024/02/06 02:20:42;;;;;;;;;;;;;;;15.52;30.28;99708.41;4995246;28;20004;-84
2024/02/06 02:23:07;;;;;;;;;;;;;;;15.51;30.09;99712.91;4977796;28;19913;-84
2024/02/06 02:25:33;;;;;;;;;;;;;;;15.53;31.06;99718.84;4977754;28;19914;-84
2024/02/06 02:27:58;;;;;;;;;;;;;;;15.50;30.02;99716.59;4995355;28;19925;-84
2024/02/06 02:30:24;;;;;;;;;;;;;;;15.51;30.18;99715.56;4977686;28;20327;-84
2024/02/06 02:32:49;;;;;;;;;;;;;;;15.51;30.31;99720.91;4994815;28;20388;-84
2024/02/06 02:35:15;;;;;;;;;;;;;;;15.51;29.95;99718.22;4994879;28;19914;-84
2024/02/06 02:37:40;;;;;;;;;;;;;;;15.47;29.44;99726.84;4995338;28;19913;-84
2024/02/06 02:40:09;;;;;;;;;;;;;;;15.51;29.81;99723.56;4994945;28;19917;-84
2024/02/06 02:42:34;;;;;;;;;;;;;;;15.50;29.20;99726.44;4977609;28;19920;-84
2024/02/06 02:44:59;;;;;;;;;;;;;;;15.53;29.83;99726.00;4995048;28;20487;-83
2024/02/06 02:47:25;;;;;;;;;;;;;;;15.50;28.61;99727.25;4977183;28;19917;-84
2024/02/06 02:49:50;;;;;;;;;;;;;;;15.51;30.01;99720.91;4977135;28;19914;-84
2024/02/06 02:52:15;;;;;;;;;;;;;;;15.49;29.26;99716.81;4994612;28;19993;-84
2024/02/06 02:54:40;;;;;;;;;;;;;;;15.52;29.87;99730.53;4977014;28;19968;-84
2024/02/06 02:57:06;;;;;;;;;;;;;;;15.46;29.30;99734.00;4994539;28;20000;-84
2024/02/06 02:59:32;;;;;;;;;;;;;;;15.49;30.15;99738.91;4977201;28;19933;-84
2024/02/06 03:01:57;;;;;;;;;;;;;;;15.47;29.15;99750.78;4977156;28;19915;-83
2024/02/06 03:04:23;;;;;;;;;;;;;;;15.45;28.44;99736.88;4994641;28;19914;-84
2024/02/06 03:06:48;;;;;;;;;;;;;;;15.44;29.74;99732.56;4977367;28;19913;-84
2024/02/06 03:09:15;;;;;;;;;;;;;;;15.45;28.91;99739.53;4994485;28;20334;-84
2024/02/06 03:11:40;;;;;;;;;;;;;;;15.44;28.67;99729.91;4976933;28;19913;-84
2024/02/06 03:14:05;;;;;;;;;;;;;;;15.45;29.20;99735.03;4976979;28;20457;-83
2024/02/06 03:16:31;;;;;;;;;;;;;;;15.43;29.43;99737.06;4994407;28;19944;-84
2024/02/06 03:18:56;;;;;;;;;;;;;;;15.41;28.76;99736.47;4994473;28;19921;-84
2024/02/06 03:21:21;;;;;;;;;;;;;;;15.40;28.47;99742.81;4993765;28;19913;-84
2024/02/06 03:23:46;;;;;;;;;;;;;;;15.39;28.05;99738.50;4976857;28;20314;-84
2024/02/06 03:26:12;;;;;;;;;;;;;;;15.40;28.21;99745.47;4994325;28;20056;-84
2024/02/06 03:28:37;;;;;;;;;;;;;;;15.42;28.97;99742.59;4976260;28;19924;-84
2024/02/06 03:31:02;;;;;;;;;;;;;;;15.39;27.87;99749.16;4993884;28;19913;-84
2024/02/06 03:33:28;;;;;;;;;;;;;;;15.40;28.64;99752.63;4976277;28;19921;-84
2024/02/06 03:35:53;;;;;;;;;;;;;;;15.40;28.62;99756.09;4976242;28;19936;-84
2024/02/06 03:38:19;;;;;;;;;;;;;;;15.40;28.83;99760.59;4976307;28;19921;-84
2024/02/06 03:40:45;;;;;;;;;;;;;;;15.38;28.11;99770.63;4993833;28;19913;-84
2024/02/06 03:43:10;;;;;;;;;;;;;;;15.34;27.94;99756.09;4994024;28;19980;-84
2024/02/06 03:45:35;;;;;;;;;;;;;;;15.36;28.41;99775.34;4994096;28;19914;-84
2024/02/06 03:48:00;;;;;;;;;;;;;;;15.35;28.75;99771.84;4976699;28;19918;-84
2024/02/06 03:50:26;;;;;;;;;;;;;;;15.37;28.26;99774.31;4993966;28;20365;-84
2024/02/06 03:52:51;;;;;;;;;;;;;;;15.32;27.90;99768.78;4994229;28;19917;-84
2024/02/06 03:55:16;;;;;;;;;;;;;;;15.32;28.35;99777.59;4976356;28;20000;-84
2024/02/06 03:57:42;;;;;;;;;;;;;;;15.31;28.28;99780.44;4993881;28;20458;-84
2024/02/06 04:00:08;;;;;;;;;;;;;;;15.34;28.53;99796.00;4993781;28;19914;-84
2024/02/06 04:02:33;;;;;;;;;;;;;;;15.34;28.84;99793.34;4976180;28;19913;-84
2024/02/06 04:04:59;;;;;;;;;;;;;;;15.33;29.14;99794.38;4976164;28;19910;-84
2024/02/06 04:07:24;;;;;;;;;;;;;;;15.31;28.92;99789.25;4993468;28;19918;-84
2024/02/06 04:09:49;;;;;;;;;;;;;;;15.29;29.13;99799.28;4993384;28;19929;-84
2024/02/06 04:12:15;;;;;;;;;;;;;;;15.29;27.72;99801.13;4975646;28;19996;-84
2024/02/06 04:14:40;;;;;;;;;;;;;;;15.30;28.40;99798.25;4975430;28;19906;-84
2024/02/06 04:17:06;;;;;;;;;;;;;;;15.31;29.09;99799.06;4975505;28;19988;-84
2024/02/06 04:19:31;;;;;;;;;;;;;;;15.30;27.74;99800.91;4992824;28;19953;-83
2024/02/06 04:21:57;;;;;;;;;;;;;;;15.29;28.54;99806.44;4993178;28;20395;-83
2024/02/06 04:24:22;;;;;;;;;;;;;;;15.29;28.19;99815.22;4992936;28;19922;-84
2024/02/06 04:26:47;;;;;;;;;;;;;;;15.27;28.52;99801.31;4993095;28;19960;-84
2024/02/06 04:29:13;;;;;;;;;;;;;;;15.25;27.93;99806.84;4975349;28;19960;-84
2024/02/06 04:31:38;;;;;;;;;;;;;;;15.23;28.27;99811.53;4975474;28;19957;-84
2024/02/06 04:34:04;;;;;;;;;;;;;;;15.23;27.55;99806.22;4975733;28;20450;-84
2024/02/06 04:36:29;;;;;;;;;;;;;;;15.23;28.22;99803.56;4993081;28;19913;-84
2024/02/06 04:38:55;;;;;;;;;;;;;;;15.23;28.82;99816.88;4975589;28;19960;-84
2024/02/06 04:41:20;;;;;;;;;;;;;;;15.20;27.72;99816.44;4975550;28;20387;-84
2024/02/06 04:43:45;;;;;;;;;;;;;;;15.19;27.04;99814.81;4975460;28;19914;-84
2024/02/06 04:46:11;;;;;;;;;;;;;;;15.18;27.87;99821.97;4992849;28;20357;-83
2024/02/06 04:48:36;;;;;;;;;;;;;;;15.19;28.20;99828.09;4992834;28;19925;-84
2024/02/06 04:51:01;;;;;;;;;;;;;;;15.17;28.39;99828.31;4975335;28;19921;-84
2024/02/06 04:53:27;;;;;;;;;;;;;;;15.15;27.20;99827.69;4992692;28;20001;-83
2024/02/06 04:55:52;;;;;;;;;;;;;;;15.15;27.97;99829.53;4992740;28;19914;-84
2024/02/06 04:58:18;;;;;;;;;;;;;;;15.14;27.75;99838.53;4975240;28;19914;-84
2024/02/06 05:00:43;;;;;;;;;;;;;;;15.14;27.94;99826.03;4975577;28;19945;-84
2024/02/06 05:03:08;;;;;;;;;;;;;;;15.13;26.90;99831.56;4992652;28;19953;-84
2024/02/06 05:05:34;;;;;;;;;;;;;;;15.13;27.39;99836.88;4975384;28;19920;-84
2024/02/06 05:07:59;;;;;;;;;;;;;;;15.14;27.25;99842.00;4992471;28;19921;-84
2024/02/06 05:10:24;;;;;;;;;;;;;;;15.11;28.30;99850.38;4975069;28;20451;-84
2024/02/06 05:12:50;;;;;;;;;;;;;;;15.09;28.97;99849.75;4992105;28;21023;-84
2024/02/06 05:15:15;;;;;;;;;;;;;;;15.03;28.80;99844.41;4992244;28;20323;-84
2024/02/06 05:17:41;;;;;;;;;;;;;;;14.94;28.26;99859.72;4974660;28;19981;-85
2024/02/06 05:20:08;;;;;;;;;;;;;;;14.91;28.37;99855.63;4992215;28;20012;-84
2024/02/06 05:22:34;;;;;;;;;;;;;;;14.88;28.71;99850.72;4992277;28;19914;-84
2024/02/06 05:24:59;;;;;;;;;;;;;;;14.84;27.50;99848.63;4992143;28;20000;-84
2024/02/06 05:27:24;;;;;;;;;;;;;;;14.86;29.18;99851.91;4975210;28;20076;-84
2024/02/06 05:29:50;;;;;;;;;;;;;;;14.87;29.28;99861.53;4992292;28;20379;-85
2024/02/06 05:32:15;;;;;;;;;;;;;;;14.85;27.82;99860.88;4992028;28;19910;-84
2024/02/06 05:34:41;;;;;;;;;;;;;;;14.85;27.94;99855.56;4992094;28;20012;-84
2024/02/06 05:37:06;;;;;;;;;;;;;;;14.88;29.24;99857.88;4991906;28;19910;-84
2024/02/06 05:39:31;;;;;;;;;;;;;;;14.87;28.93;99851.72;4974580;28;19924;-84
2024/02/06 05:41:57;;;;;;;;;;;;;;;14.86;28.63;99854.56;4974584;28;20350;-85
2024/02/06 05:44:23;;;;;;;;;;;;;;;14.87;29.09;99856.22;4975900;28;19920;-84
2024/02/06 05:46:48;;;;;;;;;;;;;;;14.87;29.34;99853.56;4996563;28;20414;-84
2024/02/06 05:49:13;;;;;;;;;;;;;;;14.85;28.27;99851.06;4995796;28;19921;-84
2024/02/06 05:51:38;;;;;;;;;;;;;;;14.84;28.95;99848.63;4995819;28;19956;-84
2024/02/06 05:54:04;;;;;;;;;;;;;;;14.81;28.18;99860.47;4995705;28;20379;-85
2024/02/06 05:56:29;;;;;;;;;;;;;;;14.80;29.16;99858.00;4995737;28;19914;-85
2024/02/06 05:58:54;;;;;;;;;;;;;;;14.78;28.83;99860.03;4978249;28;19953;-85
2024/02/06 06:01:20;;;;;;;;;;;;;;;14.76;29.55;99856.75;4995515;28;19918;-84
2024/02/06 06:03:46;;;;;;;;;;;;;;;14.76;28.19;99856.75;4977847;28;20379;-85
2024/02/06 06:06:12;;;;;;;;;;;;;;;14.73;29.17;99854.50;4977770;28;19996;-84
2024/02/06 06:08:37;;;;;;;;;;;;;;;14.71;28.93;99851.22;4994969;28;20380;-85
2024/02/06 06:11:03;;;;;;;;;;;;;;;14.69;28.93;99858.56;4995445;28;19914;-85
2024/02/06 06:13:28;;;;;;;;;;;;;;;14.68;28.87;99856.91;4978147;28;19913;-85
2024/02/06 06:15:54;;;;;;;;;;;;;;;14.71;29.23;99867.16;4995908;28;20379;-85
2024/02/06 06:18:19;;;;;;;;;;;;;;;14.69;29.11;99867.34;4995775;28;19914;-84
2024/02/06 06:20:44;;;;;;;;;;;;;;;14.67;28.79;99856.09;4978118;28;19945;-84
2024/02/06 06:23:09;;;;;;;;;;;;;;;14.71;28.29;99864.50;4995619;28;20010;-84
2024/02/06 06:25:35;;;;;;;;;;;;;;;14.72;28.57;99864.31;4995497;28;19920;-84
2024/02/06 06:28:00;;;;;;;;;;;;;;;14.74;28.42;99859.63;4976919;28;19984;-85
2024/02/06 06:30:25;;;;;;;;;;;;;;;14.78;28.92;99866.19;4977005;28;19918;-84
2024/02/06 06:32:51;;;;;;;;;;;;;;;14.81;28.63;99867.63;4994556;28;19917;-84
2024/02/06 06:35:16;;;;;;;;;;;;;;;14.81;28.32;99868.44;4995172;28;20031;-85
2024/02/06 06:37:41;;;;;;;;;;;;;;;14.82;27.41;99867.41;4975421;28;19920;-85
2024/02/06 06:40:07;;;;;;;;;;;;;;;14.81;27.92;99872.94;4995086;28;19914;-85
2024/02/06 06:42:33;;;;;;;;;;;;;;;14.85;29.34;99879.50;4994841;28;20467;-85
2024/02/06 06:44:58;;;;;;;;;;;;;;;14.85;28.26;99860.88;4977165;28;19921;-85
2024/02/06 06:47:23;;;;;;;;;;;;;;;14.83;28.65;99868.25;4977208;28;19918;-85
2024/02/06 06:49:49;;;;;;;;;;;;;;;14.82;28.02;99870.06;4977187;28;19963;-85
2024/02/06 06:52:14;;;;;;;;;;;;;;;14.86;28.71;99873.16;4976662;28;19918;-85
2024/02/06 06:54:40;;;;;;;;;;;;;;;14.85;27.77;99866.22;4994276;28;19914;-85
2024/02/06 06:57:05;;;;;;;;;;;;;;;14.90;28.79;99871.78;4993891;28;19922;-85
2024/02/06 06:59:31;;;;;;;;;;;;;;;14.91;27.95;99868.09;4994526;28;20106;-85
2024/02/06 07:01:58;;;;;;;;;;;;;;;14.93;28.69;99863.41;4993738;28;19972;-85
2024/02/06 07:04:24;;;;;;;;;;;;;;;14.95;28.80;99869.34;4976745;28;19968;-85
2024/02/06 07:06:49;;;;;;;;;;;;;;;14.93;27.37;99871.38;4976731;28;19922;-85
2024/02/06 07:09:16;;;;;;;;;;;;;;;14.96;28.55;99870.16;4976558;28;19953;-85
2024/02/06 07:11:43;;;;;;;;;;;;;;;14.97;28.43;99875.28;4977184;28;19964;-85
2024/02/06 07:14:08;;;;;;;;;;;;;;;14.98;28.46;99876.94;4977233;28;19961;-85
2024/02/06 07:16:34;;;;;;;;;;;;;;;14.97;28.74;99877.94;4976989;28;19940;-84
2024/02/06 07:18:59;;;;;;;;;;;;;;;15.02;28.84;99872.03;4994485;28;19914;-84
2024/02/06 07:21:24;;;;;;;;;;;;;;;15.02;28.59;99872.84;4994470;28;20016;-85
2024/02/06 07:23:50;;;;;;;;;;;;;;;15.03;27.50;99874.50;4994237;28;19913;-85
2024/02/06 07:26:15;;;;;;;;;;;;;;;15.08;28.60;99877.38;4976612;28;20307;-85
2024/02/06 07:28:42;;;;;;;;;;;;;;;15.10;28.63;99875.34;4994059;28;20020;-85
2024/02/06 07:31:08;;;;;;;;;;;;;;;15.15;28.97;99882.72;4978456;28;19980;-85
2024/02/06 07:33:33;;;;;;;;;;;;;;;15.18;28.27;99877.81;4987994;28;19977;-84
2024/02/06 07:35:59;;;;;;;;;;;;;;;15.21;28.29;99880.09;4982024;28;20395;-85
2024/02/06 07:38:24;;;;;;;;;;;;;;;15.25;28.54;99877.84;4975791;28;20319;-85
2024/02/06 07:40:49;;;;;;;;;;;;;;;15.25;27.99;99878.66;4976313;28;19925;-85
2024/02/06 07:43:14;;;;;;;;;;;;;;;15.32;29.05;99877.84;4994111;28;19996;-85
2024/02/06 07:45:40;;;;;;;;;;;;;;;15.34;28.30;99876.63;4994136;28;20380;-86
2024/02/06 07:48:05;;;;;;;;;;;;;;;15.40;29.40;99875.84;4993780;28;19917;-85
2024/02/06 07:50:31;;;;;;;;;;;;;;;15.44;29.01;99871.75;4971653;28;19921;-85
2024/02/06 07:52:56;;;;;;;;;;;;;;;15.48;28.61;99872.16;4991995;28;19925;-85
2024/02/06 07:55:21;;;;;;;;;;;;;;;15.52;28.78;99868.91;4991282;28;20392;-85
2024/02/06 07:57:47;;;;;;;;;;;;;;;15.58;28.99;99883.28;4974883;28;19956;-85
2024/02/06 08:00:12;;;;;;;;;;;;;;;15.62;28.99;99875.72;4975803;28;20387;-84
2024/02/06 08:02:37;;;;;;;;;;;;;;;15.70;28.07;99884.34;4993273;28;19914;-84
2024/02/06 08:05:04;;;;;;;;;;;;;;;15.81;28.63;99880.25;4972603;28;20009;-85
2024/02/06 08:07:29;;;;;;;;;;;;;;;15.86;27.33;99891.94;4974917;28;19929;-85
2024/02/06 08:09:55;;;;;;;;;;;;;;;15.95;28.35;99889.06;4992893;28;19925;-85
2024/02/06 08:12:20;;;;;;;;;;;;;;;15.98;27.48;99884.16;4993014;28;20374;-85
2024/02/06 08:14:45;;;;;;;;;;;;;;;16.05;27.92;99884.97;4973829;28;19972;-85
2024/02/06 08:17:11;;;;;;;;;;;;;;;16.12;27.56;99882.31;4989860;28;20465;-84
2024/02/06 08:19:36;;;;;;;;;;;;;;;16.17;28.71;99877.19;4992592;28;19945;-85
2024/02/06 08:22:01;;;;;;;;;;;;;;;15.78;27.37;99806.94;4989913;28;19936;-83
2024/02/06 08:24:27;;;;;;;;;;;;;;;16.30;27.49;99885.16;4990601;28;19918;-85
2024/02/06 08:26:52;;;;;;;;;;;;;;;16.36;27.76;99883.56;4990568;28;19925;-84
2024/02/06 08:29:17;;;;;;;;;;;;;;;16.42;27.61;99888.88;4992178;28;19925;-84
2024/02/06 08:31:45;;;;;;;;;;;;;;;16.51;27.14;99884.97;4975624;28;20354;-83
2024/02/06 08:34:10;;;;;;;;;;;;;;;16.61;26.78;99886.38;4992300;28;19918;-83
2024/02/06 08:36:36;;;;;;;;;;;;;;;16.70;27.30;99893.97;4992602;28;19918;-85
2024/02/06 08:39:01;;;;;;;;;;;;;;;16.80;27.01;99875.69;4993019;28;20434;-84
2024/02/06 08:41:28;;;;;;;;;;;;;;;16.89;27.82;99886.13;4992590;28;19914;-84
2024/02/06 08:43:54;;;;;;;;;;;;;;;16.98;26.92;99892.84;4992670;28;19929;-84
2024/02/06 08:46:19;;;;;;;;;;;;;;;17.09;25.73;99889.53;4992423;28;19917;-84
2024/02/06 08:48:46;;;;;;;;;;;;;;;17.19;25.36;99889.91;4990235;28;19922;-83
2024/02/06 08:51:12;;;;;;;;;;;;;;;17.32;26.27;99889.03;4973650;28;20348;-83
2024/02/06 08:53:37;;;;;;;;;;;;;;;17.39;26.61;99889.81;4991870;28;20008;-84
2024/02/06 08:56:03;;;;;;;;;;;;;;;17.46;27.02;99890.59;4974319;28;20008;-84
2024/02/06 08:58:28;;;;;;;;;;;;;;;17.55;26.79;99888.50;4973824;28;20318;-83
2024/02/06 09:00:53;;;;;;;;;;;;;;;17.63;25.41;99891.72;4973842;28;19917;-84
2024/02/06 09:03:19;;;;;;;;;;;;;;;17.70;26.36;99891.72;4991919;28;19925;-84
2024/02/06 09:05:44;;;;;;;;;;;;;;;17.77;25.87;99890.63;4990270;28;20330;-84
2024/02/06 09:08:10;;;;;;;;;;;;;;;17.83;26.86;99888.94;4974547;28;19965;-84
2024/02/06 09:10:35;;;;;;;;;;;;;;;17.90;25.71;99891.59;5003580;28;19957;-84
2024/02/06 09:13:01;;;;;;;;;;;;;;;18.00;25.01;99886.59;5030850;28;19917;-85
2024/02/06 09:15:28;;;;;;;;;;;;;;;18.09;24.14;99893.28;4991572;28;19918;-85
2024/02/06 09:17:54;;;;;;;;;;;;;;;18.17;24.22;99885.00;4979924;28;20390;-84
2024/02/06 09:20:20;;;;;;;;;;;;;;;18.24;23.77;99898.31;4984616;28;19924;-84
2024/02/06 09:22:45;;;;;;;;;;;;;;;18.32;25.47;99892.69;5007999;28;19917;-84
2024/02/06 09:25:11;;;;;;;;;;;;;;;18.38;23.96;99889.94;4989445;28;19918;-84
2024/02/06 09:27:36;;;;;;;;;;;;;;;18.47;25.01;99900.34;5007503;28;20008;-84
2024/02/06 09:30:02;;;;;;;;;;;;;;;18.54;23.92;99891.22;5015720;28;19953;-84
2024/02/06 09:32:28;;;;;;;;;;;;;;;18.62;24.06;99877.63;4997369;28;20012;-84
2024/02/06 09:34:53;;;;;;;;;;;;;;;18.68;24.35;99883.94;4981353;28;19976;-84
2024/02/06 09:37:19;;;;;;;;;;;;;;;18.73;24.70;99878.75;5000956;28;19918;-84
2024/02/06 09:39:44;;;;;;;;;;;;;;;18.79;23.14;99885.88;4992323;28;19923;-84
2024/02/06 09:42:10;;;;;;;;;;;;;;;18.85;23.65;99868.13;4980937;28;19918;-84
2024/02/06 09:44:35;;;;;;;;;;;;;;;18.94;24.30;99872.13;4996399;28;20229;-84
2024/02/06 09:47:01;;;;;;;;;;;;;;;18.98;23.32;99863.44;5014929;28;19944;-84
2024/02/06 09:49:27;;;;;;;;;;;;;;;19.06;23.35;99862.28;4988119;28;20337;-84
2024/02/06 09:51:54;;;;;;;;;;;;;;;19.12;22.14;99858.72;4978337;28;19921;-84
2024/02/06 09:54:22;;;;;;;;;;;;;;;19.19;23.64;99858.63;4995089;28;20016;-84
2024/02/06 09:56:48;;;;;;;;;;;;;;;19.23;22.95;99847.25;4989460;28;20417;-84
2024/02/06 09:59:15;;;;;;;;;;;;;;;19.29;23.41;99854.38;4995142;28;19914;-83
2024/02/06 10:01:41;;;;;;;;;;;;;;;19.32;21.78;99837.03;4968612;28;19922;-83
2024/02/06 10:04:08;;;;;;;;;;;;;;;19.39;22.91;99845.00;4958620;28;19914;-84
2024/02/06 10:06:34;;;;;;;;;;;;;;;19.44;23.14;99835.25;4958158;28;19940;-85
2024/02/06 10:08:59;;;;;;;;;;;;;;;19.51;22.46;99835.97;4982112;28;20016;-84
2024/02/06 10:11:25;;;;;;;;;;;;;;;19.60;22.42;99847.19;4984101;28;19925;-84
2024/02/06 10:13:50;;;;;;;;;;;;;;;19.65;21.16;99820.53;4969908;28;20358;-84
2024/02/06 10:16:16;;;;;;;;;;;;;;;19.70;21.43;99815.28;4958797;28;20046;-84
2024/02/06 10:18:52;;;;;;;;;;;;;;;19.77;22.60;99813.31;4960361;28;20268;-84
2024/02/06 10:21:17;;;;;;;;;;;;;;;19.87;22.82;99802.03;4971922;28;20000;-84
2024/02/06 10:23:42;;;;;;;;;;;;;;;19.94;22.50;99805.41;4971581;28;20446;-84
2024/02/06 10:26:09;;;;;;;;;;;;;;;19.99;21.58;99818.94;4961561;28;19918;-84
2024/02/06 10:28:34;;;;;;;;;;;;;;;20.03;21.40;99804.00;4968486;28;19973;-84
2024/02/06 10:31:08;;;;;;;;;;;;;;;20.08;22.48;99798.81;4980801;28;19918;-85
2024/02/06 10:33:33;;;;;;;;;;;;;;;20.13;22.63;99793.56;4991465;28;19917;-84
2024/02/06 10:36:00;;;;;;;;;;;;;;;20.19;22.90;99786.44;4977599;28;19924;-84
2024/02/06 10:38:25;;;;;;;;;;;;;;;20.18;21.44;99787.50;4958160;28;19921;-85
2024/02/06 10:40:51;;;;;;;;;;;;;;;20.23;20.73;99792.97;4959840;28;20004;-84
2024/02/06 10:43:16;;;;;;;;;;;;;;;20.27;22.11;99778.03;4968885;28;20395;-84
2024/02/06 10:45:42;;;;;;;;;;;;;;;20.29;21.55;99776.75;4960903;28;20015;-83
2024/02/06 10:48:08;;;;;;;;;;;;;;;20.34;21.03;99784.09;4962046;28;19922;-84
2024/02/06 10:50:34;;;;;;;;;;;;;;;20.37;20.96;99769.38;4959679;28;20285;-83
2024/02/06 10:53:02;;;;;;;;;;;;;;;20.39;20.52;99751.19;4975488;28;19914;-84
2024/02/06 10:55:28;;;;;;;;;;;;;;;20.43;21.97;99771.16;4991741;28;19918;-84
2024/02/06 10:58:03;;;;;;;;;;;;;;;20.46;21.47;99763.44;5000127;28;19967;-84
2024/02/06 11:00:32;;;;;;;;;;;;;;;20.51;21.74;99754.69;4977595;28;19998;-84
2024/02/06 11:02:58;;;;;;;;;;;;;;;20.57;22.12;99753.75;4994942;28;20008;-83
2024/02/06 11:05:26;;;;;;;;;;;;;;;20.59;21.05;99749.75;4993079;28;19940;-84
2024/02/06 11:08:01;;;;;;;;;;;;;;;20.62;21.33;99754.66;4993650;28;19922;-84
2024/02/06 11:10:50;;;;;;;;;;;;;;;20.67;22.07;99743.22;4975244;28;19929;-84
2024/02/06 11:13:22;;;;;;;;;;;;;;;20.72;21.63;99753.22;4961715;28;19997;-84
2024/02/06 11:15:49;;;;;;;;;;;;;;;20.76;20.85;99740.97;4992559;28;20318;-84
2024/02/06 11:18:16;;;;;;;;;;;;;;;20.77;20.60;99743.41;4974870;28;19967;-83
2024/02/06 11:20:43;;;;;;;;;;;;;;;20.79;20.80;99732.44;4958039;28;20025;-84
2024/02/06 11:23:08;;;;;;;;;;;;;;;20.78;21.70;99728.94;4994246;28;19918;-85
2024/02/06 11:25:38;;;;;;;;;;;;;;;20.77;19.70;99734.53;4974647;28;19968;-84
2024/02/06 11:28:04;;;;;;;;;;;;;;;20.78;20.79;99720.06;4980251;28;19922;-84
2024/02/06 11:30:31;;;;;;;;;;;;;;;20.75;21.25;99721.34;4991818;28;19997;-84
2024/02/06 11:33:04;;;;;;;;;;;;;;;20.71;19.49;99709.47;4976322;28;20411;-84
2024/02/06 11:35:29;;;;;;;;;;;;;;;20.72;20.45;99699.56;4994102;28;20005;-84
2024/02/06 11:37:55;;;;;;;;;;;;;;;20.70;21.41;99702.47;4976558;28;20390;-84
2024/02/06 11:40:23;;;;;;;;;;;;;;;20.72;20.28;99694.19;4993994;28;19913;-84
2024/02/06 11:42:58;;;;;;;;;;;;;;;20.71;21.66;99688.00;4982256;28;19918;-84
2024/02/06 11:45:23;;;;;;;;;;;;;;;20.71;20.58;99688.00;4967804;28;19925;-84
2024/02/06 11:47:59;;;;;;;;;;;;;;;20.69;20.38;99689.31;4979600;28;19917;-84
2024/02/06 11:50:33;;;;;;;;;;;;;;;20.66;20.49;99685.22;4984949;28;19925;-84
2024/02/06 11:53:05;;;;;;;;;;;;;;;20.66;21.44;99671.81;4993931;28;20008;-84
2024/02/06 11:55:31;;;;;;;;;;;;;;;20.62;19.28;99655.38;4993596;28;20001;-84
2024/02/06 11:58:00;;;;;;;;;;;;;;;20.60;21.24;99646.75;4976002;28;20391;-84
2024/02/06 12:00:26;;;;;;;;;;;;;;;20.59;21.64;99647.00;4975885;28;19924;-84
2024/02/06 12:02:52;;;;;;;;;;;;;;;20.58;20.09;99640.81;4993842;28;19914;-84
2024/02/06 12:05:17;;;;;;;;;;;;;;;20.58;20.01;99637.34;4976110;28;19914;-84
2024/02/06 12:07:53;;;;;;;;;;;;;;;20.57;20.45;99628.47;4975763;28;19918;-84
2024/02/06 12:10:22;;;;;;;;;;;;;;;20.55;18.78;99621.72;4988859;28;19926;-83
2024/02/06 12:12:47;;;;;;;;;;;;;;;20.53;20.52;99621.97;4973796;28;19917;-84
2024/02/06 12:15:14;;;;;;;;;;;;;;;20.53;20.73;99621.16;4986157;28;19925;-83
2024/02/06 12:17:40;;;;;;;;;;;;;;;20.50;21.05;99613.59;4986091;28;20416;-83
2024/02/06 12:20:05;;;;;;;;;;;;;;;20.49;20.35;99606.59;4986438;28;19918;-84
2024/02/06 12:22:31;;;;;;;;;;;;;;;20.46;20.47;99599.03;4993006;28;20094;-84
2024/02/06 12:25:00;;;;;;;;;;;;;;;20.45;20.98;99597.41;4991437;28;20364;-83
2024/02/06 12:27:25;;;;;;;;;;;;;;;20.43;20.48;99594.97;4983245;28;20288;-83
2024/02/06 12:29:51;;;;;;;;;;;;;;;20.41;20.61;99597.06;4956149;28;20105;-84
2024/02/06 12:32:18;;;;;;;;;;;;;;;20.42;21.49;99596.00;4974197;28;21616;-84
2024/02/06 12:34:43;;;;;;;;;;;;;;;20.44;21.93;99585.03;4973774;28;19921;-84
2024/02/06 12:37:08;;;;;;;;;;;;;;;20.44;20.61;99582.38;4967870;28;19918;-84
2024/02/06 12:39:34;;;;;;;;;;;;;;;20.45;21.79;99587.47;4979676;28;19950;-84
2024/02/06 12:41:59;;;;;;;;;;;;;;;20.45;21.24;99586.66;4986213;28;19926;-84